Time;durP1;ratioP1;P1;durP2;ratioP2;P2;SDS_P1;SDS_P2;PMS_P1;PMS_P2;Temp;Humidity;BMP_temperature;BMP_pressure;BME280_temperature;BME280_humidity;BME280_pressure;Samples;Min_cycle;Max_cycle;Signal;HPM_P1;HPM_P2
2022/09/01 00:01:42;;;;;;;3.72;1.48;;;;;;;16.78;49.46;101961.34;5061553;28;20386;-79
2022/09/01 00:04:15;;;;;;;6.15;1.65;;;;;;;16.77;49.50;101966.84;5068578;28;20020;-78
2022/09/01 00:06:42;;;;;;;2.22;1.40;;;;;;;16.71;50.00;101970.06;5074377;28;20021;-79
2022/09/01 00:09:11;;;;;;;4.63;1.48;;;;;;;16.67;50.11;101963.25;5061934;28;20438;-78
2022/09/01 00:11:38;;;;;;;3.83;1.65;;;;;;;16.65;49.78;101961.56;5062488;28;20067;-79
2022/09/01 00:14:05;;;;;;;2.65;1.58;;;;;;;16.64;50.02;101967.06;5076042;28;20522;-79
2022/09/01 00:16:32;;;;;;;1.88;1.45;;;;;;;16.58;50.67;101965.72;5067342;28;20044;-80
2022/09/01 00:18:57;;;;;;;4.55;1.60;;;;;;;16.58;50.98;101960.38;5064520;28;20517;-79
2022/09/01 00:21:26;;;;;;;4.18;1.55;;;;;;;16.60;50.61;101961.13;5073898;28;20099;-79
2022/09/01 00:23:51;;;;;;;3.67;1.42;;;;;;;16.56;51.05;101956.97;5062033;28;20033;-79
2022/09/01 00:26:17;;;;;;;4.60;1.48;;;;;;;16.52;51.38;101954.66;5074836;28;20368;-79
2022/09/01 00:28:42;;;;;;;3.88;1.60;;;;;;;16.46;51.72;101962.25;5073833;28;20028;-79
2022/09/01 00:31:08;;;;;;;4.57;1.65;;;;;;;16.44;51.90;101966.06;5063603;28;20055;-79
2022/09/01 00:33:34;;;;;;;3.38;1.52;;;;;;;16.41;52.35;101963.63;5063649;28;20049;-79
2022/09/01 00:36:01;;;;;;;4.93;1.73;;;;;;;16.36;52.58;101963.16;5065120;28;20538;-79
2022/09/01 00:38:26;;;;;;;2.70;1.48;;;;;;;16.36;52.77;101965.84;5069227;28;20024;-80
2022/09/01 00:40:52;;;;;;;2.22;1.40;;;;;;;16.35;52.89;101967.66;5071593;28;20497;-78
2022/09/01 00:43:40;;;;;;;4.05;1.60;;;;;;;16.35;53.15;101964.13;5072236;28;20044;-79
2022/09/01 00:46:12;;;;;;;2.60;1.30;;;;;;;16.30;54.03;101963.66;5072481;28;20483;-79
2022/09/01 00:48:38;;;;;;;4.78;1.35;;;;;;;16.28;54.36;101955.75;5060985;28;20457;-79
2022/09/01 00:51:06;;;;;;;4.25;1.48;;;;;;;16.24;54.44;101957.00;5124524;22;20048;-80
2022/09/01 00:53:32;;;;;;;4.53;2.13;;;;;;;16.22;54.80;101959.81;5081852;28;20053;-79
2022/09/01 00:55:58;;;;;;;3.50;1.48;;;;;;;16.22;54.78;101958.94;5071966;28;20051;-80
2022/09/01 00:58:23;;;;;;;9.00;1.75;;;;;;;16.17;55.16;101964.69;5093420;28;20025;-80
2022/09/01 01:00:51;;;;;;;8.32;1.70;;;;;;;16.14;55.53;101959.59;5085474;28;20024;-78
2022/09/01 01:03:16;;;;;;;3.75;1.58;;;;;;;16.17;55.80;101963.81;5086724;28;20070;-80
2022/09/01 01:05:50;;;;;;;4.80;1.70;;;;;;;16.16;55.35;101962.13;5093886;28;20041;-80
2022/09/01 01:08:18;;;;;;;4.65;1.80;;;;;;;16.13;55.94;101957.88;5095180;28;20043;-79
2022/09/01 01:10:43;;;;;;;2.55;1.70;;;;;;;16.11;55.95;101965.19;5086207;28;20037;-78
2022/09/01 01:13:14;;;;;;;3.10;1.70;;;;;;;16.08;56.52;101958.25;5095427;28;20553;-78
2022/09/01 01:15:42;;;;;;;4.53;1.50;;;;;;;16.05;56.35;101953.16;5095865;28;20056;-78
2022/09/01 01:18:15;;;;;;;2.00;1.52;;;;;;;16.01;56.85;101950.84;5092476;28;20044;-79
2022/09/01 01:23:47;;;;;;;1.95;1.45;;;;;;;16.01;56.28;101957.06;5081951;28;20050;-78
2022/09/01 01:26:13;;;;;;;3.05;1.45;;;;;;;16.00;57.09;101952.66;5093533;28;20027;-79
2022/09/01 01:28:41;;;;;;;3.45;1.83;;;;;;;15.98;57.21;101954.63;5092886;28;20047;-78
2022/09/01 01:31:11;;;;;;;2.72;1.42;;;;;;;15.94;57.50;101950.50;5091981;28;20025;-79
2022/09/01 01:33:57;;;;;;;1.77;1.67;;;;;;;15.98;56.75;101948.41;5093619;28;20029;-79
2022/09/01 01:36:35;;;;;;;3.78;1.70;;;;;;;15.93;56.75;101947.94;5057674;28;20033;-79
2022/09/01 01:39:13;;;;;;;3.20;1.42;;;;;;;15.87;57.61;101950.16;5066841;28;20048;-79
2022/09/01 01:41:41;;;;;;;2.63;1.95;;;;;;;15.83;58.14;101956.72;5091271;28;20025;-79
2022/09/01 01:44:07;;;;;;;4.75;1.75;;;;;;;15.84;57.83;101950.41;5069088;28;20029;-79
2022/09/01 01:46:34;;;;;;;4.10;1.67;;;;;;;15.80;58.33;101956.97;5094541;28;20059;-80
2022/09/01 01:49:03;;;;;;;2.17;1.73;;;;;;;15.74;58.63;101954.78;5092358;28;20040;-80
2022/09/01 01:51:30;;;;;;;4.00;1.90;;;;;;;15.78;58.17;101956.25;5080335;28;20028;-78
2022/09/01 01:53:58;;;;;;;3.25;1.75;;;;;;;15.72;58.76;101959.38;5081950;28;20025;-79
2022/09/01 01:56:24;;;;;;;1.95;1.75;;;;;;;15.68;58.89;101960.63;5068728;28;20020;-79
2022/09/01 01:58:53;;;;;;;2.20;1.90;;;;;;;15.68;58.75;101955.25;5088723;28;20024;-79
2022/09/01 02:01:20;;;;;;;6.68;2.35;;;;;;;15.67;59.04;101959.78;5081602;28;20037;-79
2022/09/01 02:03:46;;;;;;;2.28;1.80;;;;;;;15.63;59.24;101960.97;5080916;28;20025;-79
2022/09/01 02:06:12;;;;;;;4.60;1.85;;;;;;;15.61;59.25;101960.25;5086183;28;20035;-80
2022/09/01 02:08:38;;;;;;;5.47;2.13;;;;;;;15.57;59.62;101953.47;5073273;28;20029;-79
2022/09/01 02:11:05;;;;;;;3.97;2.15;;;;;;;15.50;60.02;101961.13;5091704;28;20029;-80
2022/09/01 02:13:31;;;;;;;4.72;2.00;;;;;;;15.51;59.56;101964.66;5081698;28;20033;-80
2022/09/01 02:16:00;;;;;;;2.13;1.92;;;;;;;15.49;60.29;101966.63;5090573;28;20035;-80
2022/09/01 02:18:32;;;;;;;2.10;1.90;;;;;;;15.45;60.21;101959.78;5092833;28;20039;-81
2022/09/01 02:20:58;;;;;;;3.40;2.15;;;;;;;15.40;59.99;101957.47;5088370;28;20021;-80
2022/09/01 02:23:24;;;;;;;5.18;1.92;;;;;;;15.40;60.21;101957.47;5089187;28;20017;-77
2022/09/01 02:25:53;;;;;;;6.57;2.00;;;;;;;15.34;60.62;101964.16;5077840;28;20043;-79
2022/09/01 02:28:20;;;;;;;4.70;1.70;;;;;;;15.34;60.31;101957.97;5093800;28;20017;-79
2022/09/01 02:30:48;;;;;;;2.47;1.90;;;;;;;15.30;60.56;101961.84;5093414;28;20024;-77
2022/09/01 02:33:18;;;;;;;2.17;1.92;;;;;;;15.27;60.63;101954.06;5093223;28;20107;-79
2022/09/01 02:35:49;;;;;;;4.00;1.80;;;;;;;15.27;60.52;101959.41;5086838;28;20008;-79
2022/09/01 02:38:19;;;;;;;3.17;2.10;;;;;;;15.23;60.97;101963.31;5091192;28;20028;-79
2022/09/01 02:40:48;;;;;;;4.22;1.83;;;;;;;15.22;60.87;101958.91;5092938;28;20024;-79
2022/09/01 02:43:18;;;;;;;3.93;1.73;;;;;;;15.17;61.08;101957.47;5076153;28;20075;-79
2022/09/01 02:45:43;;;;;;;5.70;2.03;;;;;;;15.15;61.14;101958.56;5089708;28;20467;-79
2022/09/01 02:48:09;;;;;;;4.35;1.80;;;;;;;15.15;60.98;101953.19;5099230;28;20101;-79
2022/09/01 02:50:40;;;;;;;4.80;2.00;;;;;;;15.14;61.24;101957.72;5098519;28;20025;-79
2022/09/01 02:53:08;;;;;;;2.60;1.88;;;;;;;15.14;61.03;101954.19;5097744;28;20025;-80
2022/09/01 02:55:38;;;;;;;4.23;2.30;;;;;;;15.13;61.03;101955.16;5092402;28;20036;-80
2022/09/01 02:58:06;;;;;;;3.40;1.90;;;;;;;15.07;61.71;101951.16;5085929;28;20035;-80
2022/09/01 03:00:38;;;;;;;2.73;2.23;;;;;;;15.07;61.61;101950.28;5098795;28;20017;-80
2022/09/01 03:03:04;;;;;;;4.70;2.10;;;;;;;15.02;61.55;101942.63;5085410;28;20068;-79
2022/09/01 03:05:33;;;;;;;2.33;2.13;;;;;;;15.00;61.55;101933.84;5098885;28;20021;-79
2022/09/01 03:08:01;;;;;;;5.18;2.10;;;;;;;14.96;62.06;101935.06;5084363;28;20013;-80
2022/09/01 03:10:35;;;;;;;4.65;2.20;;;;;;;14.94;61.97;101937.03;5098893;28;20029;-80
2022/09/01 03:13:09;;;;;;;5.35;2.10;;;;;;;14.91;62.17;101935.41;5088835;28;20040;-80
2022/09/01 03:15:35;;;;;;;5.00;2.20;;;;;;;14.88;62.30;101945.50;5100733;28;20013;-79
2022/09/01 03:18:02;;;;;;;3.35;1.80;;;;;;;14.87;62.42;101946.47;5101004;28;20024;-79
2022/09/01 03:20:32;;;;;;;5.07;2.28;;;;;;;14.82;62.53;101941.47;5098211;28;20021;-79
2022/09/01 03:22:58;;;;;;;5.70;2.28;;;;;;;14.82;62.19;101945.97;5090332;28;20011;-79
2022/09/01 03:25:24;;;;;;;3.65;2.00;;;;;;;14.76;62.55;101941.97;5085488;28;20088;-79
2022/09/01 03:27:52;;;;;;;4.05;2.10;;;;;;;14.77;62.41;101943.66;5090980;28;20032;-80
2022/09/01 03:30:18;;;;;;;4.23;2.30;;;;;;;14.79;62.40;101952.44;5084363;28;20001;-79
2022/09/01 03:32:44;;;;;;;4.43;2.25;;;;;;;14.75;62.61;101945.59;5091263;28;20016;-79
2022/09/01 03:35:11;;;;;;;3.13;1.85;;;;;;;14.72;62.76;101941.34;5070670;28;20054;-79
2022/09/01 03:37:38;;;;;;;4.10;2.28;;;;;;;14.68;62.95;101937.19;5090379;28;20017;-79
2022/09/01 03:40:05;;;;;;;2.50;1.98;;;;;;;14.66;62.88;101940.97;5093496;28;20028;-80
2022/09/01 03:42:31;;;;;;;2.85;2.03;;;;;;;14.64;63.18;101942.88;5088686;28;20029;-79
2022/09/01 03:44:57;;;;;;;3.72;2.17;;;;;;;14.59;63.22;101941.44;5073456;28;20021;-79
2022/09/01 03:47:23;;;;;;;3.45;2.40;;;;;;;14.60;63.30;101942.28;5059350;28;20040;-79
2022/09/01 03:49:48;;;;;;;4.40;2.10;;;;;;;14.59;63.14;101938.75;5082067;28;20027;-79
2022/09/01 03:52:16;;;;;;;2.22;2.03;;;;;;;14.55;63.66;101939.91;5096837;28;20076;-80
2022/09/01 03:54:42;;;;;;;5.25;2.33;;;;;;;14.55;63.21;101933.72;5086422;28;20017;-80
2022/09/01 03:57:08;;;;;;;6.22;2.08;;;;;;;14.52;63.77;101940.16;5089248;28;20029;-80
2022/09/01 03:59:34;;;;;;;3.17;2.28;;;;;;;14.48;63.36;101944.03;5096015;28;20036;-80
2022/09/01 04:02:01;;;;;;;4.88;2.70;;;;;;;14.46;63.63;101929.09;5086820;28;20027;-80
2022/09/01 04:04:31;;;;;;;2.92;2.30;;;;;;;14.44;63.60;101937.22;5090815;28;20021;-81
2022/09/01 04:06:59;;;;;;;4.68;2.50;;;;;;;14.39;64.18;101937.56;5089200;28;20078;-80
2022/09/01 04:09:24;;;;;;;3.30;2.25;;;;;;;14.43;63.61;101938.19;5095221;28;20032;-80
2022/09/01 04:11:50;;;;;;;6.28;2.53;;;;;;;14.41;63.62;101932.94;5096979;28;20115;-80
2022/09/01 04:14:18;;;;;;;4.72;2.35;;;;;;;14.39;64.17;101934.88;5090380;28;20021;-80
2022/09/01 04:19:29;;;;;;;6.63;2.53;;;;;;;14.36;64.20;101937.78;5084201;28;20039;-80
2022/09/01 04:21:58;;;;;;;5.25;2.25;;;;;;;14.33;64.36;101943.34;5094413;28;20035;-80
2022/09/01 04:24:26;;;;;;;5.00;2.45;;;;;;;14.29;64.56;101931.22;5075445;28;20056;-80
2022/09/01 04:26:54;;;;;;;5.65;2.42;;;;;;;14.32;64.05;101935.44;5089115;28;20051;-80
2022/09/01 04:29:28;;;;;;;6.57;2.10;;;;;;;14.29;64.61;101941.91;5075077;28;20029;-80
2022/09/01 04:32:04;;;;;;;3.47;2.10;;;;;;;14.30;64.39;101940.91;5092018;28;20085;-81
2022/09/01 04:34:35;;;;;;;4.85;2.42;;;;;;;14.25;64.73;101935.06;5094849;28;20035;-80
2022/09/01 04:37:09;;;;;;;6.90;2.20;;;;;;;14.24;64.59;101941.41;5092852;28;20431;-81
2022/09/01 04:39:35;;;;;;;4.65;2.20;;;;;;;14.24;64.38;101939.56;5090811;28;20107;-81
2022/09/01 04:42:07;;;;;;;4.40;2.42;;;;;;;14.23;64.43;101943.19;5095957;28;20032;-80
2022/09/01 04:44:33;;;;;;;3.30;2.42;;;;;;;14.23;64.56;101943.19;5081807;28;20039;-79
2022/09/01 04:46:59;;;;;;;5.38;2.05;;;;;;;14.24;64.20;101946.75;5095016;28;20387;-80
2022/09/01 04:49:25;;;;;;;4.10;2.33;;;;;;;14.20;64.40;101935.41;5093223;28;20024;-79
2022/09/01 04:51:52;;;;;;;3.88;2.25;;;;;;;14.19;64.06;101940.88;5075673;28;20044;-80
2022/09/01 04:54:19;;;;;;;7.57;2.30;;;;;;;14.20;64.30;101947.91;5091334;28;20132;-80
2022/09/01 04:56:49;;;;;;;4.20;2.03;;;;;;;14.21;63.75;101945.13;5076396;28;20048;-78
2022/09/01 04:59:19;;;;;;;5.40;2.40;;;;;;;14.18;64.27;101952.53;5074915;28;20040;-80
2022/09/01 05:01:49;;;;;;;;;;;;;;;14.28;62.80;101940.19;5096752;28;20012;-79
2022/09/01 05:04:19;;;;;;;9.77;2.40;;;;;;;14.21;63.69;101944.28;5079962;28;19963;-80
2022/09/01 05:06:48;;;;;;;3.92;2.22;;;;;;;14.13;63.59;101936.00;5088128;28;20063;-80
2022/09/01 05:09:13;;;;;;;4.13;2.20;;;;;;;14.15;63.84;101948.25;5092997;28;20100;-80
2022/09/01 05:11:44;;;;;;;3.05;2.13;;;;;;;14.13;63.57;101942.19;5097551;28;20021;-80
2022/09/01 05:14:13;;;;;;;7.32;2.20;;;;;;;14.11;63.69;101952.13;5080232;28;20016;-81
2022/09/01 05:16:41;;;;;;;3.50;2.20;;;;;;;14.12;63.76;101942.28;5067787;28;20047;-81
2022/09/01 05:19:13;;;;;;;5.60;2.45;;;;;;;14.08;64.02;101944.34;5091021;28;20083;-81
2022/09/01 05:21:44;;;;;;;8.00;2.65;;;;;;;14.04;63.73;101948.22;5078071;28;20017;-80
2022/09/01 05:24:13;;;;;;;3.50;2.35;;;;;;;14.04;63.99;101946.38;5082001;28;20016;-80
2022/09/01 05:26:39;;;;;;;3.17;2.30;;;;;;;14.03;63.74;101942.00;5097061;28;20024;-80
2022/09/01 05:29:12;;;;;;;4.05;2.40;;;;;;;14.05;63.43;101947.22;5083670;28;20070;-80
2022/09/01 05:31:40;;;;;;;3.90;2.05;;;;;;;14.02;63.73;101958.13;5078638;28;20043;-80
2022/09/01 05:34:08;;;;;;;7.07;2.92;;;;;;;14.00;63.96;101950.22;5096349;28;20040;-79
2022/09/01 05:36:35;;;;;;;2.55;2.35;;;;;;;14.03;63.51;101951.84;5082994;28;20019;-80
2022/09/01 05:39:03;;;;;;;6.32;2.60;;;;;;;14.03;63.90;101951.84;5079278;28;20021;-80
2022/09/01 05:41:29;;;;;;;4.10;2.47;;;;;;;14.02;63.74;101951.00;5085285;28;20023;-80
2022/09/01 05:43:54;;;;;;;5.05;2.40;;;;;;;14.05;63.87;101950.78;5085835;28;20060;-81
2022/09/01 05:46:22;;;;;;;4.97;2.63;;;;;;;14.06;63.64;101944.44;5075195;28;20464;-81
2022/09/01 05:48:50;;;;;;;7.53;2.50;;;;;;;14.12;63.76;101951.19;5076237;28;20031;-80
2022/09/01 05:51:18;;;;;;;8.40;2.60;;;;;;;14.15;63.70;101950.06;5078235;28;20576;-80
2022/09/01 05:53:50;;;;;;;3.63;2.38;;;;;;;14.17;63.79;101954.34;5088043;28;20368;-83
2022/09/01 05:56:18;;;;;;;4.47;2.78;;;;;;;14.20;63.62;101953.25;5083964;28;20089;-82
2022/09/01 05:58:52;;;;;;;6.30;2.65;;;;;;;14.20;63.56;101959.44;5089495;28;20056;-81
2022/09/01 06:01:29;;;;;;;4.70;2.45;;;;;;;14.24;63.67;101963.63;5057342;28;20040;-82
2022/09/01 06:04:07;;;;;;;4.18;2.60;;;;;;;14.27;62.79;101956.31;5088755;28;20031;-81
2022/09/01 06:06:49;;;;;;;6.40;2.47;;;;;;;14.28;63.33;101956.22;5070020;28;20051;-80
2022/09/01 06:09:17;;;;;;;4.95;2.50;;;;;;;14.29;63.04;101960.59;5065495;28;20057;-81
2022/09/01 06:11:45;;;;;;;7.07;2.60;;;;;;;14.32;63.66;101964.84;5058672;28;20092;-82
2022/09/01 06:14:14;;;;;;;6.10;2.47;;;;;;;14.33;63.32;101967.41;5088913;28;20040;-82
2022/09/01 06:16:41;;;;;;;5.85;2.70;;;;;;;14.39;62.80;101966.13;5068223;28;20059;-81
2022/09/01 06:19:11;;;;;;;8.70;2.70;;;;;;;14.41;62.99;101967.69;5083856;28;20044;-81
2022/09/01 06:21:40;;;;;;;3.65;2.78;;;;;;;14.39;62.41;101956.28;5078076;28;20042;-83
2022/09/01 06:24:13;;;;;;;6.60;2.40;;;;;;;14.39;62.47;101955.44;5066080;28;20031;-82
2022/09/01 06:26:49;;;;;;;3.95;2.38;;;;;;;14.48;62.45;101962.75;5064876;28;20024;-82
2022/09/01 06:29:15;;;;;;;4.65;2.50;;;;;;;14.53;62.13;101963.25;5088132;22;20020;-50
2022/09/01 06:31:41;;;;;;;4.73;2.30;;;;;;;14.55;62.32;101966.66;5053786;28;20044;-51
2022/09/01 06:34:09;;;;;;;5.00;2.35;;;;;;;14.57;62.01;101967.41;5054837;28;20288;-53
2022/09/01 06:36:37;;;;;;;4.25;2.67;;;;;;;14.59;62.11;101962.81;5047829;28;20017;-53
2022/09/01 06:39:03;;;;;;;5.45;2.47;;;;;;;14.64;62.28;101966.94;5068505;28;20417;-49
2022/09/01 06:41:30;;;;;;;9.35;2.60;;;;;;;14.68;62.34;101971.09;5048011;28;20079;-49
2022/09/01 06:43:56;;;;;;;4.07;2.40;;;;;;;14.76;62.44;101969.53;5045241;28;20041;-50
2022/09/01 06:46:22;;;;;;;4.43;2.20;;;;;;;14.83;61.81;101969.94;5041742;28;20033;-49
2022/09/01 06:48:48;;;;;;;6.75;3.00;;;;;;;14.88;61.82;101966.91;5045532;28;20032;-50
2022/09/01 06:51:17;;;;;;;9.68;2.92;;;;;;;14.95;62.01;101968.13;5058995;28;20486;-45
2022/09/01 06:53:44;;;;;;;9.20;2.65;;;;;;;15.01;61.67;101966.81;5035162;28;20025;-45
2022/09/01 06:56:12;;;;;;;6.80;2.63;;;;;;;15.10;61.69;101972.28;5035374;28;20034;-47
2022/09/01 06:58:41;;;;;;;7.07;2.63;;;;;;;15.22;61.50;101978.53;5035510;28;20040;-46
2022/09/01 07:01:14;;;;;;;9.02;2.53;;;;;;;15.32;61.27;101970.59;5034186;28;20040;-45
2022/09/01 07:03:42;;;;;;;7.65;2.78;;;;;;;15.44;60.72;101980.34;5035460;28;20025;-45
2022/09/01 07:06:09;;;;;;;12.38;3.22;;;;;;;15.60;60.83;101981.81;5035130;28;20079;-48
2022/09/01 07:08:38;;;;;;;6.95;2.65;;;;;;;15.74;60.17;101981.56;5035497;28;20029;-47
2022/09/01 07:11:08;;;;;;;4.65;3.00;;;;;;;15.92;59.70;101976.59;5033407;28;20064;-46
2022/09/01 07:13:35;;;;;;;3.72;2.10;;;;;;;16.13;59.14;101982.00;5035047;28;20439;-47
2022/09/01 07:16:03;;;;;;;5.03;3.03;;;;;;;16.30;58.52;101985.97;5034697;28;20032;-45
2022/09/01 07:18:30;;;;;;;9.45;3.13;;;;;;;16.52;58.19;101990.41;5035110;28;20029;-47
2022/09/01 07:20:56;;;;;;;11.88;3.05;;;;;;;16.74;57.42;101992.13;5032265;28;20037;-45
2022/09/01 07:23:23;;;;;;;6.22;2.40;;;;;;;17.01;57.08;101982.72;5034627;28;20045;-45
2022/09/01 07:25:53;;;;;;;5.97;2.50;;;;;;;17.25;56.30;101984.28;5033630;28;20083;-49
2022/09/01 07:28:19;;;;;;;8.05;2.83;;;;;;;17.49;55.90;101987.50;5034312;28;20083;-45
2022/09/01 07:30:49;;;;;;;3.58;2.53;;;;;;;17.66;55.57;101986.00;5032030;28;20049;-45
2022/09/01 07:33:21;;;;;;;4.00;2.40;;;;;;;17.96;54.70;101988.81;5033915;28;20103;-47
2022/09/01 07:35:46;;;;;;;4.85;2.58;;;;;;;18.29;54.07;101988.44;5032223;28;20037;-48
2022/09/01 07:38:12;;;;;;;5.32;2.38;;;;;;;18.51;53.04;101973.00;5034079;28;20025;-48
2022/09/01 07:40:39;;;;;;;9.07;2.78;;;;;;;18.88;52.75;101982.22;5034198;28;20483;-49
2022/09/01 07:43:14;;;;;;;5.95;2.35;;;;;;;19.15;52.15;101985.00;5034244;28;20109;-48
2022/09/01 07:45:43;;;;;;;6.15;2.40;;;;;;;19.54;51.75;101981.31;5036842;28;20049;-50
2022/09/01 07:48:08;;;;;;;5.38;2.33;;;;;;;19.74;50.33;101987.44;5035787;28;20108;-46
2022/09/01 07:50:46;;;;;;;6.88;2.53;;;;;;;19.98;50.52;101977.97;5033698;28;20536;-44
2022/09/01 07:53:38;;;;;;;6.80;2.50;;;;;;;20.09;49.97;101980.47;5029035;28;20029;-45
2022/09/01 07:56:08;;;;;;;9.70;3.00;;;;;;;20.48;48.41;101986.41;5032306;28;20048;-46
2022/09/01 07:58:34;;;;;;;7.53;2.70;;;;;;;20.58;47.92;101980.06;5020768;28;20026;-46
2022/09/01 08:01:02;;;;;;;4.50;2.42;;;;;;;20.72;47.31;101982.25;5034292;28;20042;-47
2022/09/01 08:03:29;;;;;;;4.33;2.33;;;;;;;20.94;47.24;101978.19;5034520;28;20056;-46
2022/09/01 08:05:59;;;;;;;5.32;2.30;;;;;;;21.11;46.47;101976.44;5032412;28;20037;-45
2022/09/01 08:08:25;;;;;;;8.15;3.00;;;;;;;21.23;45.94;101980.59;5034551;28;20174;-46
2022/09/01 08:10:51;;;;;;;5.60;2.38;;;;;;;21.45;46.33;101972.91;5034044;28;20021;-44
2022/09/01 08:13:17;;;;;;;6.95;2.47;;;;;;;21.75;45.44;101973.38;5032974;28;20017;-45
2022/09/01 08:15:42;;;;;;;6.85;2.30;;;;;;;21.90;44.79;101976.31;5033064;28;20475;-46
2022/09/01 08:18:08;;;;;;;3.88;2.30;;;;;;;21.99;44.34;101975.31;5033953;28;20029;-46
2022/09/01 08:20:38;;;;;;;8.48;2.38;;;;;;;22.18;44.68;101974.16;5034242;28;20032;-45
2022/09/01 08:23:05;;;;;;;9.07;2.58;;;;;;;22.48;44.88;101969.16;5034340;28;20029;-45
2022/09/01 08:25:32;;;;;;;3.70;1.98;;;;;;;22.76;44.38;101977.78;5033784;28;20026;-45
2022/09/01 08:27:58;;;;;;;5.05;2.17;;;;;;;23.00;43.78;101976.06;5033674;28;20037;-46
2022/09/01 08:30:23;;;;;;;4.82;2.20;;;;;;;23.24;42.78;101967.91;5033311;28;20045;-45
2022/09/01 08:32:49;;;;;;;4.97;2.10;;;;;;;23.48;42.77;101976.97;5033621;28;20039;-47
2022/09/01 08:35:15;;;;;;;9.13;2.70;;;;;;;23.74;42.05;101970.44;5032970;28;20104;-48
2022/09/01 08:37:41;;;;;;;4.57;2.40;;;;;;;23.88;41.59;101968.84;5031868;28;20387;-49
2022/09/01 08:40:07;;;;;;;4.97;2.10;;;;;;;24.24;40.82;101963.69;5032069;28;20467;-47
2022/09/01 08:43:05;;;;;;;7.07;2.25;;;;;;;24.43;42.40;101975.97;5031836;28;20052;-45
2022/09/01 08:45:41;;;;;;;5.97;2.28;;;;;;;24.58;40.21;101976.03;5032529;28;20085;-48
2022/09/01 08:48:19;;;;;;;10.75;2.40;;;;;;;24.63;40.78;101976.34;5031597;28;20072;-43
2022/09/01 08:50:53;;;;;;;4.57;2.40;;;;;;;24.62;39.80;101985.50;5029992;28;20510;-45
2022/09/01 08:53:30;;;;;;;4.72;1.92;;;;;;;24.80;40.21;101974.31;5031488;28;20414;-45
2022/09/01 08:55:57;;;;;;;6.22;2.30;;;;;;;25.06;39.52;101971.16;5031945;28;20048;-47
2022/09/01 08:58:23;;;;;;;5.95;2.25;;;;;;;25.07;39.54;101970.09;5032014;28;20392;-49
2022/09/01 09:00:56;;;;;;;6.65;2.10;;;;;;;25.37;39.09;101972.03;5031898;28;20418;-46
2022/09/01 09:03:40;;;;;;;5.60;2.17;;;;;;;25.47;39.44;101964.41;5031162;28;20025;-48
2022/09/01 09:06:16;;;;;;;7.78;2.20;;;;;;;25.75;38.57;101961.00;5029002;28;20036;-48
2022/09/01 09:08:52;;;;;;;4.22;2.03;;;;;;;25.97;38.11;101964.63;5031796;28;20033;-50
2022/09/01 09:11:54;;;;;;;7.38;2.28;;;;;;;26.32;38.57;101960.16;5031236;28;20116;-46
2022/09/01 09:14:43;;;;;;;5.78;2.30;;;;;;;26.39;37.69;101955.59;5031329;28;20025;-45
2022/09/01 09:17:09;;;;;;;9.65;2.05;;;;;;;26.37;36.07;101965.88;5022754;28;20510;-48
2022/09/01 09:19:36;;;;;;;8.82;2.25;;;;;;;26.82;36.18;101951.19;5031950;28;20057;-47
2022/09/01 09:22:09;;;;;;;4.55;2.33;;;;;;;26.70;36.83;101951.72;5032666;28;20060;-49
2022/09/01 09:24:54;;;;;;;7.38;2.10;;;;;;;26.91;36.80;101949.97;5026919;28;20022;-46
2022/09/01 09:27:26;;;;;;;3.72;2.22;;;;;;;26.97;36.07;101948.34;5029825;28;20037;-46
2022/09/01 09:29:57;;;;;;;3.38;2.08;;;;;;;26.97;36.23;101943.72;5032457;28;20057;-45
2022/09/01 09:32:24;;;;;;;6.78;2.17;;;;;;;27.11;34.56;101947.38;5032044;28;20557;-47
2022/09/01 09:34:50;;;;;;;4.88;1.75;;;;;;;27.05;34.86;101945.47;5031609;28;20021;-48
2022/09/01 09:37:21;;;;;;;9.43;2.17;;;;;;;27.13;35.13;101948.88;5032334;28;20056;-49
2022/09/01 09:40:13;;;;;;;5.35;1.90;;;;;;;27.29;35.83;101939.53;5032452;28;20033;-46
2022/09/01 09:42:41;;;;;;;5.95;2.13;;;;;;;27.43;34.20;101939.59;5032743;28;20064;-46
2022/09/01 09:45:28;;;;;;;5.35;1.83;;;;;;;27.58;35.21;101934.84;5032615;28;20037;-47
2022/09/01 09:47:55;;;;;;;3.00;1.98;;;;;;;27.56;32.86;101934.19;5032475;28;20053;-47
2022/09/01 09:50:30;;;;;;;2.88;1.70;;;;;;;27.57;33.25;101930.41;5030378;28;20033;-48
2022/09/01 09:53:11;;;;;;;7.18;1.83;;;;;;;27.59;33.33;101924.75;5033231;28;20083;-48
2022/09/01 09:55:59;;;;;;;3.58;1.67;;;;;;;27.52;33.83;101910.25;5027596;28;20541;-48
2022/09/01 09:58:34;;;;;;;4.80;1.63;;;;;;;27.93;33.25;101910.19;5034375;28;20383;-46
2022/09/01 10:01:01;;;;;;;6.05;1.70;;;;;;;28.35;31.35;101920.94;5036301;28;20033;-49
2022/09/01 10:03:55;;;;;;;2.20;1.17;;;;;;;28.53;31.92;101914.84;5034004;28;20021;-50
2022/09/01 10:06:44;;;;;;;3.17;1.45;;;;;;;28.63;31.27;101918.00;5035791;28;20045;-46
2022/09/01 10:09:35;;;;;;;6.80;1.50;;;;;;;28.76;31.21;101917.13;5036499;28;20364;-47
2022/09/01 10:12:01;;;;;;;2.00;1.15;;;;;;;28.97;29.30;101910.56;5027237;28;20379;-49
2022/09/01 10:14:32;;;;;;;2.42;1.10;;;;;;;29.15;29.47;101910.72;5036016;28;20017;-47
2022/09/01 10:17:07;;;;;;;3.05;1.10;;;;;;;29.31;28.31;101903.13;5036531;28;20486;-48
2022/09/01 10:19:34;;;;;;;3.42;1.05;;;;;;;29.27;27.94;101901.88;5035685;28;20064;-47
2022/09/01 10:22:01;;;;;;;2.78;1.30;;;;;;;29.15;26.58;101904.44;5036166;28;20030;-48
2022/09/01 10:24:35;;;;;;;6.13;1.10;;;;;;;29.18;27.33;101900.44;5035504;28;20096;-46
2022/09/01 10:27:09;;;;;;;3.20;1.00;;;;;;;29.06;26.05;101906.56;5030890;28;20033;-49
2022/09/01 10:29:42;;;;;;;3.55;1.30;;;;;;;29.23;26.73;101901.47;5034467;28;20041;-50
2022/09/01 10:32:14;;;;;;;2.92;1.13;;;;;;;29.46;25.83;101897.38;5034573;28;20431;-47
2022/09/01 10:34:41;;;;;;;6.35;0.90;;;;;;;29.62;25.33;101893.28;5035186;28;20033;-47
2022/09/01 10:37:07;;;;;;;1.77;0.88;;;;;;;29.63;25.18;101895.81;5035507;28;20049;-51
2022/09/01 10:39:33;;;;;;;2.38;1.05;;;;;;;29.62;24.57;101899.59;5035789;28;20112;-49
2022/09/01 10:42:06;;;;;;;4.55;1.27;;;;;;;29.47;25.12;101915.47;5035557;28;20132;-47
2022/09/01 10:44:37;;;;;;;1.33;1.05;;;;;;;29.38;25.39;101909.41;5035356;28;20114;-49
2022/09/01 10:47:23;;;;;;;3.92;1.30;;;;;;;29.60;25.79;101904.47;5035231;28;20025;-47
2022/09/01 10:49:49;;;;;;;2.45;1.00;;;;;;;30.18;25.84;101892.50;5035020;28;20029;-49
2022/09/01 10:52:42;;;;;;;5.25;0.90;;;;;;;30.15;25.74;101897.59;5029425;28;20045;-49
2022/09/01 10:55:31;;;;;;;4.43;1.10;;;;;;;30.33;25.76;101900.41;5034792;28;20033;-45
2022/09/01 10:58:14;;;;;;;2.05;0.90;;;;;;;30.08;25.05;101893.00;5034232;28;20033;-48
2022/09/01 11:00:43;;;;;;;2.65;0.90;;;;;;;30.08;24.22;101882.03;5034904;28;20033;-46
2022/09/01 11:03:11;;;;;;;2.33;1.15;;;;;;;30.17;24.10;101890.00;5034360;28;20018;-47
2022/09/01 11:05:59;;;;;;;2.72;1.38;;;;;;;30.30;25.51;101892.63;5033473;28;20037;-46
2022/09/01 11:08:27;;;;;;;;;;;;;;;30.59;26.37;101888.38;5034194;28;20060;-46
2022/09/01 11:11:27;;;;;;;2.95;1.00;;;;;;;30.38;24.30;101889.63;5033495;28;19913;-46
2022/09/01 11:13:55;;;;;;;2.20;0.88;;;;;;;30.32;23.85;101887.75;5033026;28;20080;-47
2022/09/01 11:16:26;;;;;;;;;;;;;;;30.71;25.77;101884.88;5034208;28;20087;-51
2022/09/01 11:18:52;;;;;;;3.03;0.95;;;;;;;30.50;23.77;101875.19;5034277;28;19913;-47
2022/09/01 11:21:29;;;;;;;7.13;1.35;;;;;;;30.44;24.38;101879.66;5034658;28;20087;-46
2022/09/01 11:24:32;;;;;;;4.05;1.05;;;;;;;30.54;24.01;101879.97;5034155;28;20471;-48
2022/09/01 11:26:57;;;;;;;2.75;1.17;;;;;;;30.47;22.87;101878.38;5028706;28;20352;-46
2022/09/01 11:29:53;;;;;;;1.77;1.00;;;;;;;30.63;24.25;101872.31;5034260;28;20026;-50
2022/09/01 11:32:21;;;;;;;2.80;1.05;;;;;;;30.71;23.15;101861.06;5034166;28;20033;-47
2022/09/01 11:34:49;;;;;;;3.83;1.00;;;;;;;30.81;23.10;101864.09;5034608;28;20026;-47
2022/09/01 11:37:16;;;;;;;;;;;;;;;31.15;24.20;101870.03;5025752;28;20445;-47
2022/09/01 11:39:50;;;;;;;3.90;1.48;;;;;;;30.66;23.72;101860.03;5034698;28;20259;-46
2022/09/01 11:42:22;;;;;;;8.57;1.33;;;;;;;30.74;23.02;101852.38;5032271;28;20029;-48
2022/09/01 11:44:49;;;;;;;3.25;0.90;;;;;;;30.75;22.60;101851.28;5032927;28;20025;-48
2022/09/01 11:47:18;;;;;;;4.97;1.00;;;;;;;30.82;22.88;101853.94;5031907;28;20098;-51